Data for 09/04/2018

Time Sea-Level Adjusted Pressure Absolute Pressure Temperature Relative Humidity Dew Point   
(mb) (inHg) (mb) (inHg) (C) (F) (%) (C) (F)
00:05 1021 30.15 851 25.13 14.5 58.1 43 2.2 36
00:10 1022 30.18 851 25.13 14.3 57.7 44 2.2 35.9
00:15 1022 30.18 851 25.13 14.2 57.5 45 2.4 36.3
00:20 1022 30.18 851 25.13 14 57.2 45 2.2 36
00:25 1022 30.18 851 25.13 13.9 56.9 45 2.3 36.1
00:30 1022 30.18 851 25.13 13.8 56.8 45 2.2 36
00:35 1022 30.18 851 25.13 13.7 56.6 47 2.5 36.6
00:40 1022 30.18 851 25.13 13.3 55.9 49 2.7 36.9
00:45 1022 30.18 851 25.13 13 55.4 49 2.6 36.7
00:50 1022 30.18 851 25.13 12.9 55.2 50 2.6 36.8
00:55 1022 30.18 851 25.13 12.8 55 50 2.6 36.7
01:00 1022 30.18 851 25.13 12.7 54.9 50 2.6 36.7
01:05 1022 30.18 851 25.13 12.8 55 50 2.7 36.9
01:10 1022 30.18 851 25.13 12.7 54.8 51 2.8 37.1
01:15 1022 30.18 851 25.13 12.5 54.5 52 2.8 37.1
01:20 1022 30.18 851 25.13 12.4 54.3 52 2.8 37
01:25 1022 30.18 851 25.13 12.3 54.2 52 2.8 37
01:30 1022 30.18 851 25.13 12.2 54 53 2.9 37.1
01:35 1022 30.18 851 25.13 12 53.6 53 2.9 37.2
01:40 1022 30.18 851 25.13 12 53.6 53 2.9 37.1
01:45 1022 30.18 851 25.13 11.8 53.3 55 3 37.5
01:50 1022 30.18 851 25.13 11.5 52.8 56 3.1 37.5
01:55 1022 30.18 851 25.13 11.2 52.1 57 3.1 37.5
02:00 1022 30.18 851 25.13 10.9 51.6 58 3.1 37.5
02:05 1022 30.18 851 25.13 10.7 51.2 59 3 37.4
02:10 1022 30.18 851 25.13 10.5 50.9 59 3 37.3
02:15 1022 30.18 851 25.13 10.3 50.5 60 3 37.3
02:20 1022 30.18 851 25.13 10.1 50.2 61 3 37.3
02:25 1022 30.18 851 25.13 10 49.9 61 2.9 37.3
02:30 1022 30.18 851 25.13 9.8 49.6 62 2.9 37.2
02:35 1022 30.18 852 25.16 9.8 49.6 62 2.9 37.2
02:40 1022 30.18 852 25.16 9.7 49.4 62 2.8 37.1
02:45 1022 30.18 852 25.16 9.6 49.3 63 2.8 37.1
02:50 1022 30.18 852 25.16 9.6 49.3 62 2.8 37.1
02:55 1022 30.18 852 25.16 9.5 49.1 63 2.8 37
03:00 1022 30.18 852 25.16 9.4 49 63 2.8 37.1
03:05 1022 30.18 852 25.16 9.4 48.9 63 2.8 37
03:10 1022 30.18 852 25.16 9.4 48.9 63 2.7 36.8
03:15 1022 30.18 852 25.16 9.4 48.8 63 2.7 36.8
03:20 1023 30.21 852 25.16 9.3 48.7 63 2.7 36.9
03:25 1023 30.21 852 25.16 9.2 48.6 63 2.6 36.8
03:30 1023 30.21 852 25.16 9.2 48.6 63 2.7 36.8
03:35 1023 30.21 852 25.16 9.3 48.7 62 2.4 36.4
03:40 1023 30.21 852 25.16 9.3 48.8 62 2.5 36.4
03:45 1023 30.21 852 25.16 9.3 48.7 61 2.3 36.1
03:50 1023 30.21 852 25.16 9.2 48.5 61 2.1 35.8
03:55 1023 30.21 852 25.16 9.2 48.5 61 2 35.6
04:00 1023 30.21 852 25.16 9.1 48.3 61 2.1 35.7
04:05 1023 30.21 852 25.16 8.9 48.1 62 2 35.6
04:10 1023 30.21 852 25.16 8.8 47.9 62 2 35.5
04:15 1023 30.21 852 25.16 8.7 47.7 62 1.9 35.3
04:20 1023 30.21 852 25.16 8.7 47.7 61 1.7 35.1
04:25 1023 30.21 852 25.16 8.8 47.8 61 1.7 35.1
04:30 1023 30.21 852 25.16 8.7 47.6 62 1.8 35.3
04:35 1023 30.21 852 25.16 8.7 47.6 62 1.8 35.2
04:40 1023 30.21 852 25.16 8.6 47.5 62 1.9 35.3
04:45 1023 30.21 852 25.16 8.7 47.6 62 1.8 35.3
04:50 1023 30.21 852 25.16 8.7 47.6 62 1.8 35.3
04:55 1023 30.21 852 25.16 8.7 47.7 62 1.9 35.3
05:00 1023 30.21 852 25.16 8.7 47.6 62 1.9 35.4
05:05 1023 30.21 852 25.16 8.5 47.3 63 1.8 35.2
05:10 1023 30.21 852 25.16 8.5 47.2 63 1.8 35.2
05:15 1023 30.21 852 25.16 8.5 47.2 63 1.8 35.2
05:20 1023 30.21 853 25.19 8.4 47.2 63 1.8 35.2
05:25 1023 30.21 853 25.19 8.4 47 63 1.8 35.2
05:30 1023 30.21 853 25.19 8.3 46.9 63 1.8 35.2
05:35 1023 30.21 852 25.16 8.3 46.9 64 1.8 35.2
05:40 1023 30.21 853 25.19 8.3 47 64 1.9 35.4
05:45 1023 30.21 853 25.19 8.3 46.9 64 1.8 35.3
05:50 1024 30.24 853 25.19 8.3 46.9 64 1.9 35.4
05:55 1024 30.24 853 25.19 8.3 46.9 64 2 35.6
06:00 1024 30.24 853 25.19 8.2 46.7 65 2 35.7
06:05 1024 30.24 853 25.19 8.1 46.7 65 2 35.7
06:10 1024 30.24 853 25.19 8.1 46.6 66 2.1 35.8
06:15 1024 30.24 853 25.19 8.1 46.6 66 2.1 35.8
06:20 1024 30.24 853 25.19 8 46.3 66 2.1 35.8
06:25 1024 30.24 853 25.19 8 46.4 66 2 35.7
06:30 1024 30.24 853 25.19 8.2 46.8 65 2.1 35.8
06:35 1024 30.24 853 25.19 8.3 47 65 2.2 36
06:40 1024 30.24 853 25.19 8.3 46.9 66 2.4 36.3
06:45 1024 30.24 853 25.19 8.2 46.8 66 2.3 36.2
06:50 1024 30.24 853 25.19 8.2 46.8 66 2.3 36.2
06:55 1024 30.24 854 25.22 8.3 46.9 66 2.4 36.3
07:00 1024 30.24 854 25.22 8.3 46.9 66 2.4 36.2
07:05 1024 30.24 854 25.22 8.3 47 66 2.3 36.1
07:10 1024 30.24 854 25.22 8.4 47.1 66 2.4 36.3
07:15 1024 30.24 854 25.22 8.6 47.5 64 2.3 36.1
07:20 1024 30.24 854 25.22 8.8 47.8 64 2.3 36.2
07:25 1024 30.24 854 25.22 8.9 47.9 64 2.4 36.3
07:30 1024 30.24 854 25.22 9 48.2 63 2.4 36.4
07:35 1024 30.24 854 25.22 9.1 48.4 63 2.5 36.4
07:40 1025 30.27 854 25.22 9.1 48.5 63 2.5 36.4
07:45 1025 30.27 854 25.22 9.2 48.6 62 2.4 36.4
07:50 1025 30.27 854 25.22 9.3 48.7 62 2.4 36.3
07:55 1025 30.27 854 25.22 9.2 48.5 63 2.4 36.3
08:00 1025 30.27 854 25.22 9.2 48.6 63 2.5 36.4
08:05 1025 30.27 854 25.22 9.3 48.7 63 2.5 36.6
08:10 1024 30.24 854 25.22 9.4 48.9 61 2.4 36.3
08:15 1024 30.24 854 25.22 9.2 48.6 63 2.5 36.5
08:20 1024 30.24 854 25.22 9.3 48.7 62 2.5 36.4
08:25 1024 30.24 854 25.22 9.3 48.7 62 2.4 36.3
08:30 1024 30.24 854 25.22 9.3 48.8 62 2.4 36.4
08:35 1024 30.24 854 25.22 9.5 49.2 62 2.6 36.7
08:40 1024 30.24 854 25.22 9.6 49.2 61 2.4 36.4
08:45 1024 30.24 854 25.22 9.7 49.4 61 2.5 36.4
08:50 1024 30.24 854 25.22 9.6 49.2 60 2.3 36.2
08:55 1024 30.24 854 25.22 9.6 49.2 60 2.3 36.1
09:00 1024 30.24 854 25.22 9.8 49.7 60 2.4 36.4
09:05 1024 30.24 853 25.19 9.7 49.4 61 2.5 36.4
09:10 1024 30.24 853 25.19 9.7 49.4 60 2.4 36.3
09:15 1024 30.24 854 25.22 9.8 49.7 60 2.4 36.3
09:20 1024 30.24 853 25.19 9.8 49.6 60 2.4 36.4
09:25 1024 30.24 853 25.19 9.8 49.7 60 2.5 36.5
09:30 1024 30.24 853 25.19 10 49.9 60 2.5 36.5
09:35 1024 30.24 853 25.19 10.1 50.1 59 2.5 36.4
09:40 1024 30.24 853 25.19 10.3 50.5 59 2.6 36.6
09:45 1024 30.24 853 25.19 10.3 50.5 58 2.3 36.2
09:50 1024 30.24 853 25.19 10.5 50.8 58 2.5 36.5
09:55 1024 30.24 853 25.19 10.7 51.3 57 2.6 36.7
10:00 1024 30.24 853 25.19 10.7 51.2 56 2.3 36.1
10:05 1024 30.24 853 25.19 10.9 51.5 56 2.4 36.2
10:10 1024 30.24 853 25.19 10.8 51.5 55 2.1 35.8
10:15 1024 30.24 853 25.19 11.2 52.2 54 2.3 36.2
10:20 1024 30.24 853 25.19 11.5 52.8 53 2.4 36.3
10:25 1024 30.24 853 25.19 11.7 53.1 53 2.6 36.7
10:30 1024 30.24 853 25.19 11.6 52.8 53 2.3 36.2
10:35 1024 30.24 853 25.19 12.2 53.9 52 2.5 36.6
10:40 1024 30.24 853 25.19 12.8 55 50 2.8 37.1
10:45 1024 30.24 853 25.19 13.1 55.6 49 2.6 36.7
10:50 1024 30.24 853 25.19 12.9 55.1 49 2.6 36.6
10:55 1024 30.24 853 25.19 13.1 55.7 49 2.6 36.7
11:00 1024 30.24 853 25.19 13 55.5 49 2.6 36.7
11:05 1024 30.24 853 25.19 13.4 56 47 2.3 36.2
11:10 1024 30.24 853 25.19 13.7 56.6 48 2.8 37.1
11:15 1024 30.24 853 25.19 13.6 56.6 45 2.1 35.8
11:20 1024 30.24 853 25.19 13.9 57.1 47 2.8 37.1
11:25 1024 30.24 853 25.19 14 57.1 46 2.7 36.8
11:30 1024 30.24 853 25.19 13.7 56.6 47 2.7 36.9
11:35 1024 30.24 853 25.19 14 57.2 46 2.8 37
11:40 1024 30.24 853 25.19 14.3 57.7 46 2.8 37
11:45 1024 30.24 853 25.19 14.5 58 45 2.6 36.7
11:50 1024 30.24 853 25.19 14.8 58.6 44 2.6 36.7
11:55 1024 30.24 853 25.19 14.8 58.6 44 2.7 36.8
12:00 1024 30.24 853 25.19 15 59 44 2.8 37.1
12:05 1024 30.24 853 25.19 14.7 58.4 46 3.3 37.9
12:10 1024 30.24 853 25.19 15 59 43 2.8 37
12:15 1024 30.24 853 25.19 15.1 59.3 43 2.6 36.7
12:20 1024 30.24 853 25.19 15.6 60 42 2.7 36.9
12:25 1023 30.21 853 25.19 16 60.9 42 3.3 37.9
12:30 1023 30.21 853 25.19 16 60.8 41 2.8 37.1
12:35 1023 30.21 853 25.19 16.3 61.3 40 2.8 37.1
12:40 1023 30.21 852 25.16 16 60.9 41 2.8 37.1
12:45 1023 30.21 852 25.16 15.7 60.3 41 2.6 36.7
12:50 1023 30.21 852 25.16 16.6 61.8 39 2.6 36.8
12:55 1023 30.21 852 25.16 17 62.7 38 2.6 36.7
13:00 1023 30.21 852 25.16 16.8 62.3 38 2.4 36.4
13:05 1023 30.21 852 25.16 16.9 62.4 39 3.1 37.5
13:10 1023 30.21 852 25.16 17 62.5 38 2.5 36.5
13:15 1023 30.21 852 25.16 17.1 62.9 39 3.1 37.6
13:20 1023 30.21 852 25.16 16.7 62.1 39 2.7 36.8
13:25 1023 30.21 852 25.16 17.5 63.4 39 3.4 38.2
13:30 1023 30.21 852 25.16 17.3 63.2 38 2.8 37.1
13:35 1023 30.21 852 25.16 17 62.6 38 2.6 36.7
13:40 1023 30.21 852 25.16 16.7 62.1 38 2.3 36.2
13:45 1023 30.21 852 25.16 17.3 63.1 36 2.2 36
13:50 1023 30.21 852 25.16 17.3 63.2 37 2.8 37.1
13:55 1023 30.21 852 25.16 17.2 63 37 2.4 36.3
14:00 1023 30.21 852 25.16 17.5 63.4 35 2 35.6
14:05 1023 30.21 852 25.16 17.5 63.5 36 2.4 36.2
14:10 1023 30.21 852 25.16 17.5 63.5 35 1.9 35.4
14:15 1023 30.21 852 25.16 18 64.5 34 1.9 35.4
14:20 1023 30.21 852 25.16 17.9 64.2 34 1.9 35.4
14:25 1023 30.21 852 25.16 18.1 64.5 33 1.8 35.3
14:30 1023 30.21 852 25.16 18 64.4 33 1.5 34.7
14:35 1022 30.18 852 25.16 17.9 64.3 33 1.7 35.1
14:40 1022 30.18 852 25.16 17.9 64.2 33 1.6 34.9
14:45 1022 30.18 852 25.16 17.9 64.2 34 1.7 35.1
14:50 1022 30.18 851 25.13 18 64.4 32 1.3 34.4
14:55 1022 30.18 851 25.13 17.9 64.3 32 1.2 34.2
15:00 1022 30.18 851 25.13 18.1 64.6 33 1.6 34.8
15:05 1022 30.18 851 25.13 18.4 65.1 32 1.5 34.8
15:10 1022 30.18 851 25.13 17.9 64.2 32 0.9 33.7
15:15 1022 30.18 851 25.13 17.9 64.3 31 0.9 33.6
15:20 1022 30.18 851 25.13 18.2 64.8 30 0.7 33.2
15:25 1022 30.18 851 25.13 18.2 64.8 31 1 33.8
15:30 1022 30.18 851 25.13 18.3 64.9 31 0.9 33.7
15:35 1022 30.18 851 25.13 18.1 64.5 31 1 33.7
15:40 1022 30.18 851 25.13 17.9 64.2 31 0.8 33.4
15:45 1022 30.18 851 25.13 17.8 64.1 30 0.3 32.6
15:50 1022 30.18 851 25.13 17.7 63.9 31 0.7 33.2
15:55 1022 30.18 851 25.13 17.8 64.1 31 0.7 33.3
16:00 1022 30.18 851 25.13 17.6 63.7 31 0.5 33
16:05 1022 30.18 851 25.13 17.7 63.8 31 0.3 32.5
16:10 1022 30.18 851 25.13 17.5 63.6 31 0.6 33
16:15 1022 30.18 851 25.13 17.5 63.5 31 0.3 32.6
16:20 1022 30.18 851 25.13 17.4 63.3 31 0.4 32.6
16:25 1022 30.18 851 25.13 17.5 63.5 31 0.3 32.5
16:30 1022 30.18 851 25.13 17.3 63.2 31 0.3 32.5
16:35 1022 30.18 851 25.13 17.4 63.3 32 0.6 33
16:40 1022 30.18 851 25.13 17.3 63.2 31 0.3 32.5
16:45 1022 30.18 851 25.13 17.1 62.8 31 0.1 32.2
16:50 1022 30.18 851 25.13 17.1 62.8 31 0.1 32.1
16:55 1022 30.18 851 25.13 17 62.6 32 0.2 32.3
17:00 1022 30.18 851 25.13 16.9 62.4 32 0.1 32.1
17:05 1022 30.18 851 25.13 16.8 62.2 32 0.1 32.2
17:10 1022 30.18 851 25.13 16.7 62.1 32 0.1 32.2
17:15 1022 30.18 851 25.13 16.6 61.9 33 0.2 32.4
17:20 1022 30.18 851 25.13 16.5 61.7 33 0.3 32.6
17:25 1022 30.18 851 25.13 16.5 61.6 33 0.3 32.6
17:30 1022 30.18 851 25.13 16.4 61.5 34 0.4 32.8
17:35 1022 30.18 851 25.13 16.3 61.3 34 0.6 33
17:40 1022 30.18 851 25.13 16.2 61.2 34 0.6 33.1
17:45 1022 30.18 851 25.13 16.2 61.1 35 0.8 33.4
17:50 1022 30.18 851 25.13 16.1 61.1 35 0.6 33.2
17:55 1022 30.18 851 25.13 16.1 60.9 35 0.8 33.4
18:00 1022 30.18 852 25.16 15.9 60.6 35 0.7 33.3
18:05 1022 30.18 852 25.16 15.8 60.5 36 0.9 33.6
18:10 1022 30.18 852 25.16 15.7 60.2 36 0.8 33.5
18:15 1022 30.18 852 25.16 15.6 60.1 36 0.8 33.4
18:20 1023 30.21 852 25.16 15.5 59.8 36 0.6 33.1
18:25 1022 30.18 852 25.16 15.4 59.6 36 0.6 33.1
18:30 1022 30.18 852 25.16 15.2 59.4 37 0.6 33
18:35 1023 30.21 852 25.16 15 59.1 37 0.6 33.1
18:40 1023 30.21 852 25.16 14.9 58.9 37 0.5 32.9
18:45 1023 30.21 852 25.16 14.8 58.6 37 0.5 32.8
18:50 1023 30.21 852 25.16 14.7 58.4 38 0.7 33.2
18:55 1023 30.21 852 25.16 14.5 58.1 38 0.4 32.7
19:00 1023 30.21 852 25.16 14.4 57.9 38 0.4 32.7
19:05 1023 30.21 852 25.16 14.3 57.7 38 0.4 32.7
19:10 1023 30.21 852 25.16 14.1 57.4 39 0.4 32.7
19:15 1023 30.21 852 25.16 14 57.1 40 0.5 32.9
19:20 1023 30.21 852 25.16 13.8 56.8 40 0.4 32.7
19:25 1023 30.21 852 25.16 13.7 56.7 40 0.5 32.9
19:30 1023 30.21 852 25.16 13.6 56.5 40 0.4 32.8
19:35 1023 30.21 852 25.16 13.5 56.4 40 0.4 32.7
19:40 1023 30.21 852 25.16 13.4 56.2 41 0.5 33
19:45 1023 30.21 852 25.16 13.3 56 41 0.5 33
19:50 1023 30.21 852 25.16 13.3 55.9 41 0.4 32.8
19:55 1023 30.21 853 25.19 13.4 56 42 0.6 33.1
20:00 1023 30.21 853 25.19 13.3 55.9 42 0.6 33.1
20:05 1023 30.21 853 25.19 13.2 55.8 42 0.6 33.1
20:10 1023 30.21 853 25.19 13.2 55.7 42 0.7 33.3
20:15 1024 30.24 853 25.19 13.1 55.5 43 0.8 33.4
20:20 1024 30.24 853 25.19 13 55.4 43 0.8 33.4
20:25 1024 30.24 853 25.19 13 55.4 44 0.9 33.7
20:30 1024 30.24 853 25.19 12.9 55.2 44 1 33.8
20:35 1024 30.24 853 25.19 13 55.3 44 1.1 34
20:40 1024 30.24 853 25.19 13 55.3 44 1.1 34
20:45 1024 30.24 853 25.19 12.9 55.3 45 1.3 34.3
20:50 1024 30.24 853 25.19 12.9 55.1 45 1.4 34.5
20:55 1024 30.24 853 25.19 12.7 54.9 46 1.3 34.4
21:00 1024 30.24 853 25.19 12.7 54.8 46 1.3 34.3
21:05 1024 30.24 853 25.19 12.6 54.7 46 1.3 34.4
21:10 1024 30.24 853 25.19 12.6 54.6 46 1.3 34.4
21:15 1024 30.24 853 25.19 12.6 54.6 46 1.3 34.4
21:20 1024 30.24 853 25.19 12.5 54.5 46 1.3 34.3
21:25 1024 30.24 853 25.19 12.5 54.4 46 1.2 34.2
21:30 1024 30.24 853 25.19 12.4 54.4 46 1.2 34.1
21:35 1024 30.24 853 25.19 12.4 54.3 46 1.2 34.1
21:40 1024 30.24 853 25.19 12.4 54.3 45 1 33.8
21:45 1024 30.24 853 25.19 12.4 54.2 46 1 33.9
21:50 1024 30.24 853 25.19 12.3 54.1 46 1 33.8
21:55 1024 30.24 853 25.19 12.3 54.1 45 0.8 33.5
22:00 1024 30.24 853 25.19 12.2 53.9 46 0.9 33.6
22:05 1024 30.24 853 25.19 12.1 53.8 46 0.8 33.5
22:10 1024 30.24 853 25.19 12 53.7 46 0.8 33.5
22:15 1024 30.24 853 25.19 12 53.5 46 0.8 33.5
22:20 1024 30.24 853 25.19 11.9 53.3 46 0.7 33.3
22:25 1024 30.24 853 25.19 11.8 53.3 46 0.8 33.4
22:30 1024 30.24 853 25.19 11.8 53.2 46 0.7 33.3
22:35 1024 30.24 853 25.19 11.7 53.1 46 0.7 33.2
22:40 1024 30.24 853 25.19 11.7 53.1 46 0.7 33.2
22:45 1024 30.24 853 25.19 11.7 53.1 46 0.7 33.3
22:50 1024 30.24 853 25.19 11.7 53.1 46 0.7 33.2
22:55 1024 30.24 853 25.19 11.7 53.1 47 0.8 33.4
23:00 1024 30.24 853 25.19 11.6 52.9 47 0.6 33.2
23:05 1024 30.24 853 25.19 11.6 52.9 47 0.7 33.3
23:10 1024 30.24 853 25.19 11.6 52.8 47 0.6 33.1
23:15 1024 30.24 853 25.19 11.6 52.8 47 0.6 33
23:20 1024 30.24 853 25.19 11.6 52.9 46 0.6 33
23:25 1024 30.24 853 25.19 11.6 52.9 46 0.6 33
23:30 1024 30.24 853 25.19 11.6 52.9 46 0.6 33.1
23:35 1024 30.24 853 25.19 11.6 52.9 46 0.5 32.9
23:40 1024 30.24 853 25.19 11.6 52.9 46 0.6 33
23:45 1024 30.24 853 25.19 11.6 52.9 46 0.5 32.9
23:50 1024 30.24 853 25.19 11.6 52.9 46 0.4 32.8
23:55 1024 30.24 853 25.19 11.6 52.8 46 0.5 33
24:00 1024 30.24 854 25.22 11.5 52.8 47 0.6 33